Terminal Aerodrome Forecast
Issued by NWS Newport/Morehead City, NC

Home | Current Version | Previous Version | Text Only | Print | Product List | Glossary Off
Versions: 1 2 3 4 5 6 7 8 9 10 11 12 13 14 15 16 17 18 19 20 21 22

637
FTUS42 KMHX 201720
TAFEWN
TAF
KEWN 201720Z 2018/2118 15007KT P6SM BKN040
     FM210200 VRB04KT P6SM SCT025
     FM210500 VRB03KT 2SM BR BKN025
     FM211300 VRB03KT P6SM BKN030=

USA.gov is the U.S. government's official web portal to all federal, state and local government web resources and services.